GBYD

Banjul International Airport

Banjul, Gambia
METAR GBYD 190200Z 26007KT 9999 SCT011 26/24 Q1012
Observed Flight Rules
Aug-18 @ 02:00 UTC (27 minutes ago) Visual Flight Rules
Wind Visibility Clouds
260° at 7 knots 10,000+ meters
  • Scattered at 1,100' AGL
Temperatures Readings
Current 26°C / 79°F
Dewpoint 24°C / 75°F
Humidity 89%
Altimeter 29.88" Hg
Pressure 1012 hPa
Elevation 36
METAR GBYD 190200Z 26007KT 9999 SCT011 26/24 Q1012
Observed Flight Rules
Aug-18 @ 02:00 UTC
(27 minutes ago)
VFR
Wind Visibility
260° at 7 knots 10,000+ meters
Clouds
  • Scattered at 1,100' AGL
Temperature Dewpoint
26°C / 79°F 24°C / 75°F
Humidity Altimeter Pressure
89% 29.88" Hg 1012 hPa